Kinrooi, Belgium
Current Conditions -  °F | °C
As of 11:25 AM on Thursday 18 Dec 2014 (Local Time) from EHBK Reporting Station
Overcast Overcast  
Wind Chill: 12°   Ceiling: 600
Heat Index: 12°   Visibility: 6mi
Dew Point: 11°   Wind: 14mph
Humidity: 94%   Direction: 240°WSW
Pressure: 29.85"   Gusts: NA
Location:  51.15°N, 5.74°E
Report Text: EHBK 181025Z AUTO 24012KT 200V270 9999 SCT004/// BKN006///OVC007/// 12/11 Q1011 TEMPO 6000 -DZ
Loading
Personal Weather Stations






























Interactive Weather Map New forecast layout! Learn more

10-Day Weather Forecast

Advertisements
Track Severe Weather on mobile